sensor_id;sensor_type;location;lat;lon;timestamp;P1;durP1;ratioP1;P2;durP2;ratioP2
39674;SDS011;27790;50.840;4.386;2022-12-07T00:00:29;19.40;;;11.15;;
39674;SDS011;27790;50.840;4.386;2022-12-07T00:02:55;22.08;;;11.85;;
39674;SDS011;27790;50.840;4.386;2022-12-07T00:05:20;14.85;;;11.02;;
39674;SDS011;27790;50.840;4.386;2022-12-07T00:07:46;19.33;;;12.25;;
39674;SDS011;27790;50.840;4.386;2022-12-07T00:10:12;20.08;;;11.50;;
39674;SDS011;27790;50.840;4.386;2022-12-07T00:12:37;18.35;;;11.55;;
39674;SDS011;27790;50.840;4.386;2022-12-07T00:15:03;18.58;;;11.60;;
39674;SDS011;27790;50.840;4.386;2022-12-07T00:17:29;21.15;;;11.57;;
39674;SDS011;27790;50.840;4.386;2022-12-07T00:19:54;18.65;;;11.75;;
39674;SDS011;27790;50.840;4.386;2022-12-07T00:22:20;17.80;;;12.60;;
39674;SDS011;27790;50.840;4.386;2022-12-07T00:24:46;25.42;;;13.10;;
39674;SDS011;27790;50.840;4.386;2022-12-07T00:27:11;19.67;;;12.90;;
39674;SDS011;27790;50.840;4.386;2022-12-07T00:29:37;23.55;;;13.10;;
39674;SDS011;27790;50.840;4.386;2022-12-07T00:32:03;22.67;;;14.05;;
39674;SDS011;27790;50.840;4.386;2022-12-07T00:34:29;21.67;;;13.48;;
39674;SDS011;27790;50.840;4.386;2022-12-07T00:36:55;25.10;;;14.00;;
39674;SDS011;27790;50.840;4.386;2022-12-07T00:39:20;24.88;;;14.57;;
39674;SDS011;27790;50.840;4.386;2022-12-07T00:41:46;24.95;;;15.48;;
39674;SDS011;27790;50.840;4.386;2022-12-07T00:44:11;30.95;;;16.63;;
39674;SDS011;27790;50.840;4.386;2022-12-07T00:46:37;22.20;;;14.93;;
39674;SDS011;27790;50.840;4.386;2022-12-07T00:49:03;28.13;;;15.65;;
39674;SDS011;27790;50.840;4.386;2022-12-07T00:51:28;23.10;;;14.38;;
39674;SDS011;27790;50.840;4.386;2022-12-07T00:53:54;23.70;;;15.63;;
39674;SDS011;27790;50.840;4.386;2022-12-07T00:56:21;23.33;;;13.05;;
39674;SDS011;27790;50.840;4.386;2022-12-07T00:58:55;23.88;;;15.23;;
39674;SDS011;27790;50.840;4.386;2022-12-07T01:01:22;24.23;;;14.40;;
39674;SDS011;27790;50.840;4.386;2022-12-07T01:03:49;20.95;;;14.00;;
39674;SDS011;27790;50.840;4.386;2022-12-07T01:06:16;23.13;;;15.70;;
39674;SDS011;27790;50.840;4.386;2022-12-07T01:08:43;24.10;;;13.65;;
39674;SDS011;27790;50.840;4.386;2022-12-07T01:11:09;29.40;;;14.73;;
39674;SDS011;27790;50.840;4.386;2022-12-07T01:13:41;29.02;;;13.80;;
39674;SDS011;27790;50.840;4.386;2022-12-07T01:16:08;25.02;;;15.63;;
39674;SDS011;27790;50.840;4.386;2022-12-07T01:18:35;20.58;;;14.02;;
39674;SDS011;27790;50.840;4.386;2022-12-07T01:23:40;21.63;;;13.85;;
39674;SDS011;27790;50.840;4.386;2022-12-07T01:26:07;22.50;;;13.30;;
39674;SDS011;27790;50.840;4.386;2022-12-07T01:28:36;23.70;;;13.75;;
39674;SDS011;27790;50.840;4.386;2022-12-07T01:31:04;27.70;;;15.02;;
39674;SDS011;27790;50.840;4.386;2022-12-07T01:33:40;25.15;;;14.43;;
39674;SDS011;27790;50.840;4.386;2022-12-07T01:38:48;22.23;;;14.55;;
39674;SDS011;27790;50.840;4.386;2022-12-07T01:41:16;27.65;;;14.88;;
39674;SDS011;27790;50.840;4.386;2022-12-07T01:46:31;22.52;;;14.15;;
39674;SDS011;27790;50.840;4.386;2022-12-07T01:48:56;19.65;;;13.38;;
39674;SDS011;27790;50.840;4.386;2022-12-07T01:51:22;21.75;;;12.70;;
39674;SDS011;27790;50.840;4.386;2022-12-07T01:53:47;23.70;;;13.70;;
39674;SDS011;27790;50.840;4.386;2022-12-07T01:56:15;24.08;;;13.55;;
39674;SDS011;27790;50.840;4.386;2022-12-07T01:58:45;21.33;;;13.52;;
39674;SDS011;27790;50.840;4.386;2022-12-07T02:01:11;18.45;;;13.50;;
39674;SDS011;27790;50.840;4.386;2022-12-07T02:03:38;18.42;;;12.32;;
39674;SDS011;27790;50.840;4.386;2022-12-07T02:06:07;19.60;;;12.18;;
39674;SDS011;27790;50.840;4.386;2022-12-07T02:08:34;20.13;;;12.98;;
39674;SDS011;27790;50.840;4.386;2022-12-07T02:11:03;18.40;;;12.15;;
39674;SDS011;27790;50.840;4.386;2022-12-07T02:13:33;18.10;;;12.82;;
39674;SDS011;27790;50.840;4.386;2022-12-07T02:29:22;31.60;;;11.05;;
39674;SDS011;27790;50.840;4.386;2022-12-07T02:31:54;16.58;;;11.27;;
39674;SDS011;27790;50.840;4.386;2022-12-07T02:36:52;17.70;;;11.00;;
39674;SDS011;27790;50.840;4.386;2022-12-07T02:42:14;16.30;;;10.05;;
39674;SDS011;27790;50.840;4.386;2022-12-07T02:44:43;22.90;;;10.85;;
39674;SDS011;27790;50.840;4.386;2022-12-07T02:47:12;13.98;;;10.20;;
39674;SDS011;27790;50.840;4.386;2022-12-07T02:49:42;18.58;;;10.50;;
39674;SDS011;27790;50.840;4.386;2022-12-07T02:52:08;16.80;;;10.43;;
39674;SDS011;27790;50.840;4.386;2022-12-07T02:54:34;14.85;;;10.50;;
39674;SDS011;27790;50.840;4.386;2022-12-07T02:57:06;15.98;;;10.02;;
39674;SDS011;27790;50.840;4.386;2022-12-07T03:05:12;18.13;;;10.07;;
39674;SDS011;27790;50.840;4.386;2022-12-07T03:13:08;16.83;;;10.63;;
39674;SDS011;27790;50.840;4.386;2022-12-07T03:18:20;15.95;;;9.30;;
39674;SDS011;27790;50.840;4.386;2022-12-07T03:20:49;17.25;;;10.38;;
39674;SDS011;27790;50.840;4.386;2022-12-07T03:23:18;18.27;;;10.55;;
39674;SDS011;27790;50.840;4.386;2022-12-07T03:25:47;18.08;;;9.80;;
39674;SDS011;27790;50.840;4.386;2022-12-07T03:28:16;16.08;;;11.43;;
39674;SDS011;27790;50.840;4.386;2022-12-07T03:33:11;20.65;;;9.65;;
39674;SDS011;27790;50.840;4.386;2022-12-07T03:35:56;16.33;;;10.07;;
39674;SDS011;27790;50.840;4.386;2022-12-07T03:38:38;16.92;;;9.65;;
39674;SDS011;27790;50.840;4.386;2022-12-07T03:41:19;15.70;;;10.18;;
39674;SDS011;27790;50.840;4.386;2022-12-07T03:43:52;18.75;;;10.32;;
39674;SDS011;27790;50.840;4.386;2022-12-07T03:46:24;13.93;;;8.70;;
39674;SDS011;27790;50.840;4.386;2022-12-07T03:51:38;17.02;;;9.35;;
39674;SDS011;27790;50.840;4.386;2022-12-07T03:54:19;14.35;;;7.97;;
39674;SDS011;27790;50.840;4.386;2022-12-07T03:56:56;18.10;;;9.85;;
39674;SDS011;27790;50.840;4.386;2022-12-07T03:59:23;17.70;;;9.10;;
39674;SDS011;27790;50.840;4.386;2022-12-07T04:01:57;14.65;;;10.15;;
39674;SDS011;27790;50.840;4.386;2022-12-07T04:04:27;12.27;;;8.70;;
39674;SDS011;27790;50.840;4.386;2022-12-07T04:06:53;13.52;;;9.40;;
39674;SDS011;27790;50.840;4.386;2022-12-07T04:09:19;18.50;;;10.02;;
39674;SDS011;27790;50.840;4.386;2022-12-07T04:11:45;17.20;;;9.15;;
39674;SDS011;27790;50.840;4.386;2022-12-07T04:14:11;13.82;;;9.68;;
39674;SDS011;27790;50.840;4.386;2022-12-07T04:16:43;14.35;;;9.45;;
39674;SDS011;27790;50.840;4.386;2022-12-07T04:19:09;19.42;;;9.02;;
39674;SDS011;27790;50.840;4.386;2022-12-07T04:21:35;18.70;;;9.00;;
39674;SDS011;27790;50.840;4.386;2022-12-07T04:24:01;13.68;;;8.73;;
39674;SDS011;27790;50.840;4.386;2022-12-07T04:26:27;14.70;;;9.20;;
39674;SDS011;27790;50.840;4.386;2022-12-07T04:28:52;18.80;;;8.85;;
39674;SDS011;27790;50.840;4.386;2022-12-07T04:31:18;28.33;;;9.85;;
39674;SDS011;27790;50.840;4.386;2022-12-07T04:33:43;17.27;;;9.27;;
39674;SDS011;27790;50.840;4.386;2022-12-07T04:36:09;16.02;;;9.10;;
39674;SDS011;27790;50.840;4.386;2022-12-07T04:38:35;19.00;;;10.25;;
39674;SDS011;27790;50.840;4.386;2022-12-07T04:41:06;23.33;;;9.40;;
39674;SDS011;27790;50.840;4.386;2022-12-07T04:43:34;21.05;;;11.18;;
39674;SDS011;27790;50.840;4.386;2022-12-07T04:46:00;16.58;;;10.68;;
39674;SDS011;27790;50.840;4.386;2022-12-07T04:48:26;17.83;;;11.32;;
39674;SDS011;27790;50.840;4.386;2022-12-07T04:50:51;21.85;;;12.38;;
39674;SDS011;27790;50.840;4.386;2022-12-07T04:53:17;23.02;;;12.55;;
39674;SDS011;27790;50.840;4.386;2022-12-07T04:55:44;19.75;;;13.23;;
39674;SDS011;27790;50.840;4.386;2022-12-07T04:58:10;19.95;;;12.88;;
39674;SDS011;27790;50.840;4.386;2022-12-07T05:00:36;15.48;;;11.40;;
39674;SDS011;27790;50.840;4.386;2022-12-07T05:03:01;18.55;;;12.27;;
39674;SDS011;27790;50.840;4.386;2022-12-07T05:05:27;21.35;;;11.02;;
39674;SDS011;27790;50.840;4.386;2022-12-07T05:07:53;20.45;;;12.10;;
39674;SDS011;27790;50.840;4.386;2022-12-07T05:10:19;17.23;;;12.25;;
39674;SDS011;27790;50.840;4.386;2022-12-07T05:12:44;19.15;;;12.02;;
39674;SDS011;27790;50.840;4.386;2022-12-07T05:15:10;20.77;;;12.00;;
39674;SDS011;27790;50.840;4.386;2022-12-07T05:17:37;17.55;;;13.55;;
39674;SDS011;27790;50.840;4.386;2022-12-07T05:20:02;17.48;;;12.45;;
39674;SDS011;27790;50.840;4.386;2022-12-07T05:22:28;20.45;;;11.05;;
39674;SDS011;27790;50.840;4.386;2022-12-07T05:24:54;20.48;;;11.60;;
39674;SDS011;27790;50.840;4.386;2022-12-07T05:27:20;18.58;;;10.70;;
39674;SDS011;27790;50.840;4.386;2022-12-07T05:29:46;16.50;;;10.32;;
39674;SDS011;27790;50.840;4.386;2022-12-07T05:32:12;16.13;;;9.60;;
39674;SDS011;27790;50.840;4.386;2022-12-07T05:34:37;18.27;;;10.38;;
39674;SDS011;27790;50.840;4.386;2022-12-07T05:37:03;15.20;;;9.77;;
39674;SDS011;27790;50.840;4.386;2022-12-07T05:39:29;14.18;;;9.45;;
39674;SDS011;27790;50.840;4.386;2022-12-07T05:41:54;17.73;;;9.43;;
39674;SDS011;27790;50.840;4.386;2022-12-07T05:44:31;18.40;;;9.63;;
39674;SDS011;27790;50.840;4.386;2022-12-07T05:46:56;12.82;;;8.38;;
39674;SDS011;27790;50.840;4.386;2022-12-07T05:49:22;19.42;;;10.70;;
39674;SDS011;27790;50.840;4.386;2022-12-07T05:51:48;19.20;;;9.70;;
39674;SDS011;27790;50.840;4.386;2022-12-07T05:54:13;16.58;;;9.00;;
39674;SDS011;27790;50.840;4.386;2022-12-07T05:56:39;15.32;;;9.02;;
39674;SDS011;27790;50.840;4.386;2022-12-07T05:59:04;22.33;;;9.85;;
39674;SDS011;27790;50.840;4.386;2022-12-07T06:01:41;13.43;;;8.60;;
39674;SDS011;27790;50.840;4.386;2022-12-07T06:04:07;18.50;;;9.40;;
39674;SDS011;27790;50.840;4.386;2022-12-07T06:06:33;15.63;;;8.95;;
39674;SDS011;27790;50.840;4.386;2022-12-07T06:08:59;16.85;;;9.30;;
39674;SDS011;27790;50.840;4.386;2022-12-07T06:11:25;20.00;;;10.52;;
39674;SDS011;27790;50.840;4.386;2022-12-07T06:14:01;14.68;;;10.07;;
39674;SDS011;27790;50.840;4.386;2022-12-07T06:16:28;19.38;;;10.45;;
39674;SDS011;27790;50.840;4.386;2022-12-07T06:18:54;20.25;;;9.27;;
39674;SDS011;27790;50.840;4.386;2022-12-07T06:21:19;17.38;;;10.45;;
39674;SDS011;27790;50.840;4.386;2022-12-07T06:23:45;18.63;;;8.75;;
39674;SDS011;27790;50.840;4.386;2022-12-07T06:26:12;17.50;;;8.52;;
39674;SDS011;27790;50.840;4.386;2022-12-07T06:28:38;15.55;;;8.88;;
39674;SDS011;27790;50.840;4.386;2022-12-07T06:31:04;12.80;;;7.97;;
39674;SDS011;27790;50.840;4.386;2022-12-07T06:33:29;12.93;;;8.05;;
39674;SDS011;27790;50.840;4.386;2022-12-07T06:35:55;14.35;;;7.72;;
39674;SDS011;27790;50.840;4.386;2022-12-07T06:38:21;24.90;;;11.00;;
39674;SDS011;27790;50.840;4.386;2022-12-07T06:40:47;18.70;;;10.10;;
39674;SDS011;27790;50.840;4.386;2022-12-07T06:43:13;11.35;;;7.80;;
39674;SDS011;27790;50.840;4.386;2022-12-07T06:45:40;17.05;;;9.00;;
39674;SDS011;27790;50.840;4.386;2022-12-07T06:48:05;11.52;;;7.55;;
39674;SDS011;27790;50.840;4.386;2022-12-07T06:50:31;13.35;;;7.40;;
39674;SDS011;27790;50.840;4.386;2022-12-07T06:52:57;12.55;;;6.78;;
39674;SDS011;27790;50.840;4.386;2022-12-07T06:55:22;16.02;;;7.15;;
39674;SDS011;27790;50.840;4.386;2022-12-07T06:57:48;14.30;;;7.47;;
39674;SDS011;27790;50.840;4.386;2022-12-07T07:00:13;13.23;;;7.05;;
39674;SDS011;27790;50.840;4.386;2022-12-07T07:02:39;15.27;;;7.70;;
39674;SDS011;27790;50.840;4.386;2022-12-07T07:05:05;17.67;;;7.10;;
39674;SDS011;27790;50.840;4.386;2022-12-07T07:07:31;10.13;;;6.38;;
39674;SDS011;27790;50.840;4.386;2022-12-07T07:09:57;15.75;;;6.90;;
39674;SDS011;27790;50.840;4.386;2022-12-07T07:12:22;22.90;;;6.75;;
39674;SDS011;27790;50.840;4.386;2022-12-07T07:14:48;12.90;;;6.57;;
39674;SDS011;27790;50.840;4.386;2022-12-07T07:17:13;11.23;;;6.75;;
39674;SDS011;27790;50.840;4.386;2022-12-07T07:19:39;14.02;;;6.28;;
39674;SDS011;27790;50.840;4.386;2022-12-07T07:22:05;11.40;;;6.78;;
39674;SDS011;27790;50.840;4.386;2022-12-07T07:24:30;17.50;;;7.43;;
39674;SDS011;27790;50.840;4.386;2022-12-07T07:26:56;18.25;;;7.53;;
39674;SDS011;27790;50.840;4.386;2022-12-07T07:29:21;13.73;;;7.07;;
39674;SDS011;27790;50.840;4.386;2022-12-07T07:31:47;11.23;;;7.10;;
39674;SDS011;27790;50.840;4.386;2022-12-07T07:34:13;12.45;;;7.07;;
39674;SDS011;27790;50.840;4.386;2022-12-07T07:36:38;18.83;;;9.45;;
39674;SDS011;27790;50.840;4.386;2022-12-07T07:39:04;12.57;;;8.27;;
39674;SDS011;27790;50.840;4.386;2022-12-07T07:41:30;12.10;;;8.43;;
39674;SDS011;27790;50.840;4.386;2022-12-07T07:43:56;15.93;;;8.50;;
39674;SDS011;27790;50.840;4.386;2022-12-07T07:46:22;16.10;;;8.15;;
39674;SDS011;27790;50.840;4.386;2022-12-07T07:48:48;18.33;;;8.52;;
39674;SDS011;27790;50.840;4.386;2022-12-07T07:51:14;13.57;;;8.73;;
39674;SDS011;27790;50.840;4.386;2022-12-07T07:53:39;10.10;;;8.13;;
39674;SDS011;27790;50.840;4.386;2022-12-07T07:56:05;12.32;;;8.23;;
39674;SDS011;27790;50.840;4.386;2022-12-07T07:58:30;13.05;;;8.13;;
39674;SDS011;27790;50.840;4.386;2022-12-07T08:00:56;15.43;;;8.07;;
39674;SDS011;27790;50.840;4.386;2022-12-07T08:03:22;16.10;;;8.25;;
39674;SDS011;27790;50.840;4.386;2022-12-07T08:05:47;14.70;;;8.15;;
39674;SDS011;27790;50.840;4.386;2022-12-07T08:08:13;17.77;;;9.95;;
39674;SDS011;27790;50.840;4.386;2022-12-07T08:10:38;14.57;;;8.63;;
39674;SDS011;27790;50.840;4.386;2022-12-07T08:13:04;14.18;;;7.32;;
39674;SDS011;27790;50.840;4.386;2022-12-07T08:15:36;12.57;;;7.53;;
39674;SDS011;27790;50.840;4.386;2022-12-07T08:18:03;16.33;;;8.57;;
39674;SDS011;27790;50.840;4.386;2022-12-07T08:20:32;15.27;;;8.20;;
39674;SDS011;27790;50.840;4.386;2022-12-07T08:22:59;14.85;;;7.72;;
39674;SDS011;27790;50.840;4.386;2022-12-07T08:25:25;14.80;;;8.20;;
39674;SDS011;27790;50.840;4.386;2022-12-07T08:27:51;11.63;;;7.50;;
39674;SDS011;27790;50.840;4.386;2022-12-07T08:30:17;9.57;;;7.15;;
39674;SDS011;27790;50.840;4.386;2022-12-07T08:32:44;13.00;;;8.13;;
39674;SDS011;27790;50.840;4.386;2022-12-07T08:35:10;17.13;;;7.30;;
39674;SDS011;27790;50.840;4.386;2022-12-07T08:37:36;15.68;;;7.65;;
39674;SDS011;27790;50.840;4.386;2022-12-07T08:40:02;13.32;;;7.72;;
39674;SDS011;27790;50.840;4.386;2022-12-07T08:42:29;28.85;;;9.20;;
39674;SDS011;27790;50.840;4.386;2022-12-07T08:45:02;16.85;;;8.05;;
39674;SDS011;27790;50.840;4.386;2022-12-07T08:47:30;15.07;;;8.75;;
39674;SDS011;27790;50.840;4.386;2022-12-07T08:49:56;15.15;;;8.98;;
39674;SDS011;27790;50.840;4.386;2022-12-07T08:52:28;20.95;;;9.30;;
39674;SDS011;27790;50.840;4.386;2022-12-07T08:54:57;12.77;;;7.60;;
39674;SDS011;27790;50.840;4.386;2022-12-07T08:57:24;14.27;;;7.53;;
39674;SDS011;27790;50.840;4.386;2022-12-07T08:59:50;14.80;;;9.73;;
39674;SDS011;27790;50.840;4.386;2022-12-07T09:02:15;9.38;;;6.90;;
39674;SDS011;27790;50.840;4.386;2022-12-07T09:04:41;17.88;;;7.90;;
39674;SDS011;27790;50.840;4.386;2022-12-07T09:07:06;9.75;;;6.35;;
39674;SDS011;27790;50.840;4.386;2022-12-07T09:09:32;11.82;;;6.53;;
39674;SDS011;27790;50.840;4.386;2022-12-07T09:11:58;12.85;;;6.05;;
39674;SDS011;27790;50.840;4.386;2022-12-07T09:14:24;11.18;;;6.72;;
39674;SDS011;27790;50.840;4.386;2022-12-07T09:16:52;8.38;;;6.07;;
39674;SDS011;27790;50.840;4.386;2022-12-07T09:19:19;7.75;;;5.40;;
39674;SDS011;27790;50.840;4.386;2022-12-07T09:21:44;15.52;;;5.93;;
39674;SDS011;27790;50.840;4.386;2022-12-07T09:24:11;8.48;;;5.57;;
39674;SDS011;27790;50.840;4.386;2022-12-07T09:26:37;14.75;;;6.88;;
39674;SDS011;27790;50.840;4.386;2022-12-07T09:29:05;15.07;;;7.43;;
39674;SDS011;27790;50.840;4.386;2022-12-07T09:31:30;12.75;;;7.65;;
39674;SDS011;27790;50.840;4.386;2022-12-07T09:34:00;12.88;;;6.55;;
39674;SDS011;27790;50.840;4.386;2022-12-07T09:36:26;9.52;;;5.45;;
39674;SDS011;27790;50.840;4.386;2022-12-07T09:38:52;10.00;;;5.32;;
39674;SDS011;27790;50.840;4.386;2022-12-07T09:41:18;10.88;;;6.20;;
39674;SDS011;27790;50.840;4.386;2022-12-07T09:43:45;12.10;;;5.97;;
39674;SDS011;27790;50.840;4.386;2022-12-07T09:46:13;15.25;;;5.72;;
39674;SDS011;27790;50.840;4.386;2022-12-07T09:48:42;14.95;;;7.00;;
39674;SDS011;27790;50.840;4.386;2022-12-07T09:53:46;16.92;;;6.57;;
39674;SDS011;27790;50.840;4.386;2022-12-07T09:56:16;12.32;;;6.68;;
39674;SDS011;27790;50.840;4.386;2022-12-07T09:58:43;12.75;;;6.80;;
39674;SDS011;27790;50.840;4.386;2022-12-07T10:01:16;12.95;;;6.43;;
39674;SDS011;27790;50.840;4.386;2022-12-07T10:03:47;9.93;;;6.55;;
39674;SDS011;27790;50.840;4.386;2022-12-07T10:06:14;16.23;;;7.10;;
39674;SDS011;27790;50.840;4.386;2022-12-07T10:08:40;10.13;;;6.82;;
39674;SDS011;27790;50.840;4.386;2022-12-07T10:11:08;16.52;;;7.07;;
39674;SDS011;27790;50.840;4.386;2022-12-07T10:13:42;13.65;;;7.07;;
39674;SDS011;27790;50.840;4.386;2022-12-07T10:16:35;17.50;;;7.82;;
39674;SDS011;27790;50.840;4.386;2022-12-07T10:19:17;15.27;;;8.02;;
39674;SDS011;27790;50.840;4.386;2022-12-07T10:21:58;14.32;;;7.38;;
39674;SDS011;27790;50.840;4.386;2022-12-07T10:24:30;14.07;;;5.88;;
39674;SDS011;27790;50.840;4.386;2022-12-07T10:26:56;11.63;;;6.30;;
39674;SDS011;27790;50.840;4.386;2022-12-07T10:32:24;10.20;;;6.82;;
39674;SDS011;27790;50.840;4.386;2022-12-07T10:34:39;13.23;;;6.85;;
39674;SDS011;27790;50.840;4.386;2022-12-07T10:43:21;12.70;;;7.07;;
39674;SDS011;27790;50.840;4.386;2022-12-07T10:54:07;12.98;;;5.78;;
39674;SDS011;27790;50.840;4.386;2022-12-07T11:01:49;10.23;;;5.75;;
39674;SDS011;27790;50.840;4.386;2022-12-07T11:04:35;7.50;;;5.68;;
39674;SDS011;27790;50.840;4.386;2022-12-07T11:07:21;15.02;;;6.68;;
39674;SDS011;27790;50.840;4.386;2022-12-07T11:20:24;9.68;;;5.50;;
39674;SDS011;27790;50.840;4.386;2022-12-07T11:31:01;13.00;;;5.78;;
39674;SDS011;27790;50.840;4.386;2022-12-07T11:33:46;14.45;;;5.95;;
39674;SDS011;27790;50.840;4.386;2022-12-07T11:39:04;10.80;;;4.68;;
39674;SDS011;27790;50.840;4.386;2022-12-07T11:41:43;19.05;;;5.75;;
39674;SDS011;27790;50.840;4.386;2022-12-07T11:46:55;9.05;;;4.57;;
39674;SDS011;27790;50.840;4.386;2022-12-07T11:49:44;14.40;;;4.95;;
39674;SDS011;27790;50.840;4.386;2022-12-07T11:52:14;10.75;;;5.40;;
39674;SDS011;27790;50.840;4.386;2022-12-07T11:54:44;5.15;;;4.05;;
39674;SDS011;27790;50.840;4.386;2022-12-07T11:57:17;9.43;;;5.75;;
39674;SDS011;27790;50.840;4.386;2022-12-07T11:59:50;8.63;;;4.55;;
39674;SDS011;27790;50.840;4.386;2022-12-07T12:02:21;30.88;;;5.32;;
39674;SDS011;27790;50.840;4.386;2022-12-07T12:21:16;8.13;;;4.30;;
39674;SDS011;27790;50.840;4.386;2022-12-07T12:26:23;14.02;;;7.05;;
39674;SDS011;27790;50.840;4.386;2022-12-07T12:28:58;7.53;;;3.83;;
39674;SDS011;27790;50.840;4.386;2022-12-07T12:31:30;13.70;;;3.67;;
39674;SDS011;27790;50.840;4.386;2022-12-07T12:33:58;10.75;;;3.38;;
39674;SDS011;27790;50.840;4.386;2022-12-07T12:51:53;6.43;;;2.70;;
39674;SDS011;27790;50.840;4.386;2022-12-07T12:57:32;4.95;;;2.80;;
39674;SDS011;27790;50.840;4.386;2022-12-07T13:00:02;13.75;;;2.60;;
39674;SDS011;27790;50.840;4.386;2022-12-07T13:02:53;5.72;;;1.92;;
39674;SDS011;27790;50.840;4.386;2022-12-07T13:05:21;6.88;;;2.50;;
39674;SDS011;27790;50.840;4.386;2022-12-07T13:12:58;10.10;;;2.33;;
39674;SDS011;27790;50.840;4.386;2022-12-07T13:15:46;5.38;;;2.92;;
39674;SDS011;27790;50.840;4.386;2022-12-07T13:20:56;14.10;;;3.40;;
39674;SDS011;27790;50.840;4.386;2022-12-07T13:29:04;4.43;;;2.35;;
39674;SDS011;27790;50.840;4.386;2022-12-07T13:39:44;4.55;;;2.78;;
39674;SDS011;27790;50.840;4.386;2022-12-07T13:44:56;5.32;;;2.33;;
39674;SDS011;27790;50.840;4.386;2022-12-07T13:49:53;8.20;;;2.70;;
39674;SDS011;27790;50.840;4.386;2022-12-07T13:52:24;6.78;;;2.35;;
39674;SDS011;27790;50.840;4.386;2022-12-07T13:57:30;6.13;;;2.70;;
39674;SDS011;27790;50.840;4.386;2022-12-07T13:59:59;6.47;;;2.83;;
39674;SDS011;27790;50.840;4.386;2022-12-07T14:02:30;6.95;;;3.42;;
39674;SDS011;27790;50.840;4.386;2022-12-07T14:10:33;8.30;;;3.05;;
39674;SDS011;27790;50.840;4.386;2022-12-07T14:13:00;5.38;;;2.28;;
39674;SDS011;27790;50.840;4.386;2022-12-07T14:15:32;5.03;;;2.40;;
39674;SDS011;27790;50.840;4.386;2022-12-07T14:18:02;10.30;;;2.75;;
39674;SDS011;27790;50.840;4.386;2022-12-07T14:23:05;5.10;;;1.52;;
39674;SDS011;27790;50.840;4.386;2022-12-07T14:25:48;5.95;;;1.92;;
39674;SDS011;27790;50.840;4.386;2022-12-07T14:31:02;6.95;;;2.60;;
39674;SDS011;27790;50.840;4.386;2022-12-07T14:33:33;6.25;;;2.20;;
39674;SDS011;27790;50.840;4.386;2022-12-07T14:35:59;4.53;;;2.63;;
39674;SDS011;27790;50.840;4.386;2022-12-07T14:38:25;4.78;;;2.00;;
39674;SDS011;27790;50.840;4.386;2022-12-07T14:40:53;5.82;;;2.30;;
39674;SDS011;27790;50.840;4.386;2022-12-07T14:43:40;5.97;;;2.78;;
39674;SDS011;27790;50.840;4.386;2022-12-07T14:46:06;7.28;;;2.10;;
39674;SDS011;27790;50.840;4.386;2022-12-07T14:48:32;1.35;;;1.25;;
39674;SDS011;27790;50.840;4.386;2022-12-07T14:50:57;5.93;;;1.67;;
39674;SDS011;27790;50.840;4.386;2022-12-07T14:53:25;3.03;;;1.63;;
39674;SDS011;27790;50.840;4.386;2022-12-07T14:55:58;4.93;;;2.17;;
39674;SDS011;27790;50.840;4.386;2022-12-07T14:58:24;2.58;;;1.38;;
39674;SDS011;27790;50.840;4.386;2022-12-07T15:00:49;1.80;;;1.15;;
39674;SDS011;27790;50.840;4.386;2022-12-07T15:03:15;1.55;;;1.25;;
39674;SDS011;27790;50.840;4.386;2022-12-07T15:05:41;6.22;;;1.70;;
39674;SDS011;27790;50.840;4.386;2022-12-07T15:08:08;5.93;;;2.30;;
39674;SDS011;27790;50.840;4.386;2022-12-07T15:10:36;3.95;;;1.60;;
39674;SDS011;27790;50.840;4.386;2022-12-07T15:13:03;4.25;;;1.73;;
39674;SDS011;27790;50.840;4.386;2022-12-07T15:15:39;7.07;;;1.83;;
39674;SDS011;27790;50.840;4.386;2022-12-07T15:18:05;7.30;;;2.13;;
39674;SDS011;27790;50.840;4.386;2022-12-07T15:20:31;3.28;;;1.55;;
39674;SDS011;27790;50.840;4.386;2022-12-07T15:22:57;4.18;;;1.52;;
39674;SDS011;27790;50.840;4.386;2022-12-07T15:25:22;5.38;;;2.00;;
39674;SDS011;27790;50.840;4.386;2022-12-07T15:27:48;6.07;;;1.60;;
39674;SDS011;27790;50.840;4.386;2022-12-07T15:30:13;2.97;;;1.35;;
39674;SDS011;27790;50.840;4.386;2022-12-07T15:32:39;3.10;;;1.98;;
39674;SDS011;27790;50.840;4.386;2022-12-07T15:35:05;5.03;;;2.28;;
39674;SDS011;27790;50.840;4.386;2022-12-07T15:37:31;6.43;;;1.63;;
39674;SDS011;27790;50.840;4.386;2022-12-07T15:39:56;3.30;;;1.75;;
39674;SDS011;27790;50.840;4.386;2022-12-07T15:42:22;4.28;;;2.22;;
39674;SDS011;27790;50.840;4.386;2022-12-07T15:44:47;6.25;;;2.67;;
39674;SDS011;27790;50.840;4.386;2022-12-07T15:47:24;3.83;;;1.83;;
39674;SDS011;27790;50.840;4.386;2022-12-07T15:49:50;5.53;;;2.08;;
39674;SDS011;27790;50.840;4.386;2022-12-07T15:52:15;10.30;;;2.60;;
39674;SDS011;27790;50.840;4.386;2022-12-07T15:54:41;8.10;;;3.35;;
39674;SDS011;27790;50.840;4.386;2022-12-07T15:57:06;6.03;;;3.03;;
39674;SDS011;27790;50.840;4.386;2022-12-07T15:59:32;12.07;;;3.88;;
39674;SDS011;27790;50.840;4.386;2022-12-07T16:01:58;3.25;;;2.78;;
39674;SDS011;27790;50.840;4.386;2022-12-07T16:04:23;12.80;;;5.82;;
39674;SDS011;27790;50.840;4.386;2022-12-07T16:06:49;9.43;;;3.83;;
39674;SDS011;27790;50.840;4.386;2022-12-07T16:09:15;6.60;;;3.55;;
39674;SDS011;27790;50.840;4.386;2022-12-07T16:11:41;4.63;;;3.30;;
39674;SDS011;27790;50.840;4.386;2022-12-07T16:14:07;33.33;;;14.02;;
39674;SDS011;27790;50.840;4.386;2022-12-07T16:16:33;28.23;;;13.60;;
39674;SDS011;27790;50.840;4.386;2022-12-07T16:18:58;17.83;;;8.10;;
39674;SDS011;27790;50.840;4.386;2022-12-07T16:21:24;10.63;;;4.70;;
39674;SDS011;27790;50.840;4.386;2022-12-07T16:23:49;6.93;;;3.88;;
39674;SDS011;27790;50.840;4.386;2022-12-07T16:26:19;6.45;;;3.85;;
39674;SDS011;27790;50.840;4.386;2022-12-07T16:28:48;8.50;;;3.60;;
39674;SDS011;27790;50.840;4.386;2022-12-07T16:31:16;17.58;;;10.55;;
39674;SDS011;27790;50.840;4.386;2022-12-07T16:33:43;11.68;;;6.57;;
39674;SDS011;27790;50.840;4.386;2022-12-07T16:36:10;17.70;;;9.32;;
39674;SDS011;27790;50.840;4.386;2022-12-07T16:38:38;8.32;;;4.97;;
39674;SDS011;27790;50.840;4.386;2022-12-07T16:41:04;32.40;;;15.40;;
39674;SDS011;27790;50.840;4.386;2022-12-07T16:43:31;11.60;;;8.05;;
39674;SDS011;27790;50.840;4.386;2022-12-07T16:45:57;7.03;;;3.88;;
39674;SDS011;27790;50.840;4.386;2022-12-07T16:48:23;8.75;;;3.45;;
39674;SDS011;27790;50.840;4.386;2022-12-07T16:50:48;12.10;;;6.85;;
39674;SDS011;27790;50.840;4.386;2022-12-07T16:53:14;8.77;;;4.03;;
39674;SDS011;27790;50.840;4.386;2022-12-07T16:55:43;7.20;;;3.25;;
39674;SDS011;27790;50.840;4.386;2022-12-07T16:58:10;14.27;;;5.32;;
39674;SDS011;27790;50.840;4.386;2022-12-07T17:00:37;5.88;;;3.97;;
39674;SDS011;27790;50.840;4.386;2022-12-07T17:03:04;6.80;;;3.35;;
39674;SDS011;27790;50.840;4.386;2022-12-07T17:05:30;5.85;;;4.45;;
39674;SDS011;27790;50.840;4.386;2022-12-07T17:07:56;29.52;;;12.82;;
39674;SDS011;27790;50.840;4.386;2022-12-07T17:10:22;30.25;;;15.48;;
39674;SDS011;27790;50.840;4.386;2022-12-07T17:12:48;11.57;;;5.80;;
39674;SDS011;27790;50.840;4.386;2022-12-07T17:15:14;11.15;;;4.47;;
39674;SDS011;27790;50.840;4.386;2022-12-07T17:17:46;4.65;;;3.80;;
39674;SDS011;27790;50.840;4.386;2022-12-07T17:20:30;6.68;;;4.03;;
39674;SDS011;27790;50.840;4.386;2022-12-07T17:22:57;9.23;;;4.45;;
39674;SDS011;27790;50.840;4.386;2022-12-07T17:25:23;5.95;;;3.92;;
39674;SDS011;27790;50.840;4.386;2022-12-07T17:27:49;7.72;;;3.60;;
39674;SDS011;27790;50.840;4.386;2022-12-07T17:30:15;6.80;;;3.22;;